KSTC/STC METAR and TAF weather

Enter ICAO airport designator
Station Type Date Time Source
KSTC METAR 2020/12/01 20:53 UTC NOAA

KSTC 012053Z 15006KT 10SM CLR 03/M08 A3007 RMK AO2 SLP208 T00281083 55002


Station Type Date Time Source
KSTC Decoded METAR 2020/12/01 20:53 UTC NOAA

ST. CLOUD REGIONAL AIRPORT, MN, United States (KSTC) 45-33N 094-03W
Dec 01, 2020 - 03:53 PM EST / 2020.12.01 2053 UTC
Wind: from the SSE (150 degrees) at 7 MPH (6 KT):0
Visibility: 10 mile(s):0
Sky conditions: clear
Temperature: 37.0 F (2.8 C)
Dew Point: 17.1 F (-8.3 C)
Relative Humidity: 43%
Pressure (altimeter): 30.07 in. Hg (1018 hPa)
Pressure tendency: 0.01 inches (0.2 hPa) lower than three hours ago
ob: KSTC 012053Z 15006KT 10SM CLR 03/M08 A3007 RMK AO2 SLP208 T00281083 55002
cycle: 21

Station Type Date Time Source
KSTC TAF 2020/12/01 18:22 UTC NOAA

TAF KSTC 011720Z 0118/0218 15006KT P6SM SKC
FM021100 30005KT P6SM SKC

Example: see airport list